createdAt,value
2023-07-30T00:02:06.128Z,101620.53
2023-07-30T00:07:08.208Z,101624.94
2023-07-30T00:12:11.543Z,101632.00
2023-07-30T00:17:13.742Z,101615.97
2023-07-30T00:22:15.925Z,101615.81
2023-07-30T00:27:17.963Z,101617.50
2023-07-30T00:32:20.202Z,101607.72
2023-07-30T00:37:23.073Z,101611.44
2023-07-30T00:42:25.831Z,101602.34
2023-07-30T00:47:28.396Z,101607.06
2023-07-30T00:52:31.575Z,101621.72
2023-07-30T00:57:35.494Z,101609.41
2023-07-30T01:02:38.235Z,101614.78
2023-07-30T01:07:40.390Z,101611.75
2023-07-30T01:12:43.976Z,101614.13
2023-07-30T01:17:46.655Z,101612.09
2023-07-30T01:22:48.903Z,101617.50
2023-07-30T01:27:55.383Z,101623.06
2023-07-30T01:32:58.887Z,101607.06
2023-07-30T01:38:06.677Z,101622.38
2023-07-30T01:43:08.862Z,101625.25
2023-07-30T01:48:11.057Z,101635.19
2023-07-30T01:53:13.376Z,101626.25
2023-07-30T01:58:15.633Z,101634.34
2023-07-30T02:03:17.836Z,101619.16
2023-07-30T02:08:20.049Z,101620.00
2023-07-30T02:13:22.198Z,101615.66
2023-07-30T02:18:24.431Z,101620.84
2023-07-30T02:23:26.916Z,101626.44
2023-07-30T02:28:29.060Z,101620.19
2023-07-30T02:33:31.181Z,101624.41
2023-07-30T02:38:33.330Z,101631.63
2023-07-30T02:43:35.432Z,101644.47
2023-07-30T02:48:37.618Z,101643.44
2023-07-30T02:53:39.836Z,101641.22
2023-07-30T02:58:42.050Z,101635.69
2023-07-30T03:03:44.273Z,101625.91
2023-07-30T03:08:46.442Z,101622.19
2023-07-30T03:13:48.659Z,101624.06
2023-07-30T03:18:50.822Z,101615.97
2023-07-30T03:23:52.977Z,101601.97
2023-07-30T03:28:54.982Z,101617.00
2023-07-30T03:33:57.208Z,101614.13
2023-07-30T03:38:59.446Z,101612.94
2023-07-30T03:44:02.000Z,101609.41
2023-07-30T03:49:04.160Z,101607.69
2023-07-30T03:54:06.719Z,101614.13
2023-07-30T03:59:08.817Z,101624.06
2023-07-30T04:04:11.013Z,101634.19
2023-07-30T04:09:13.236Z,101642.41
2023-07-30T04:14:15.456Z,101652.34
2023-07-30T04:19:20.492Z,101658.78
2023-07-30T04:24:23.021Z,101674.28
2023-07-30T04:29:25.175Z,101677.13
2023-07-30T04:34:27.931Z,101671.03
2023-07-30T04:39:33.190Z,101681.69
2023-07-30T04:44:35.631Z,101683.72
2023-07-30T04:49:46.808Z,101679.13
2023-07-30T04:54:48.965Z,101688.06
2023-07-30T04:59:51.120Z,101684.19
2023-07-30T05:04:53.413Z,101684.19
2023-07-30T05:09:55.624Z,101678.97
2023-07-30T05:14:57.686Z,101689.06
2023-07-30T05:19:59.787Z,101690.56
2023-07-30T05:25:01.972Z,101690.41
2023-07-30T05:30:04.412Z,101690.91
2023-07-30T05:35:07.194Z,101696.31
2023-07-30T05:40:09.688Z,101688.38
2023-07-30T05:45:12.508Z,101696.63
2023-07-30T05:50:14.640Z,101695.81
2023-07-30T05:55:17.153Z,101709.28
2023-07-30T06:00:19.442Z,101716.16
2023-07-30T06:05:21.680Z,101721.72
2023-07-30T06:10:23.892Z,101719.72
2023-07-30T06:15:26.144Z,101724.44
2023-07-30T06:20:28.494Z,101732.50
2023-07-30T06:25:31.426Z,101739.44
2023-07-30T06:30:34.282Z,101747.38
2023-07-30T06:35:36.441Z,101745.69
2023-07-30T06:40:38.651Z,101737.44
2023-07-30T06:45:40.762Z,101744.88
2023-07-30T06:50:43.303Z,101750.94
2023-07-30T06:55:45.553Z,101756.03
2023-07-30T07:00:47.816Z,101750.47
2023-07-30T07:05:57.093Z,101761.91
2023-07-30T07:10:59.242Z,101765.47
2023-07-30T07:16:01.405Z,101771.69
2023-07-30T07:21:03.971Z,101778.09
2023-07-30T07:26:06.145Z,101778.09
2023-07-30T07:31:08.358Z,101780.94
2023-07-30T07:36:10.688Z,101775.75
2023-07-30T07:41:20.080Z,101781.97
2023-07-30T07:46:22.724Z,101790.91
2023-07-30T07:51:25.054Z,101801.22
2023-07-30T07:56:27.276Z,101807.59
2023-07-30T08:01:29.512Z,101808.44
2023-07-30T08:06:33.425Z,101811.16
2023-07-30T08:11:35.964Z,101815.19
2023-07-30T08:16:38.292Z,101816.06
2023-07-30T08:21:40.816Z,101812.84
2023-07-30T08:26:43.224Z,101819.09
2023-07-30T08:31:45.591Z,101820.59
2023-07-30T08:36:47.770Z,101830.38
2023-07-30T08:41:50.094Z,101832.06
2023-07-30T08:46:55.149Z,101844.41
2023-07-30T08:51:58.568Z,101835.56
2023-07-30T08:57:01.552Z,101838.13
2023-07-30T09:02:05.572Z,101842.16
2023-07-30T09:07:11.206Z,101842.66
2023-07-30T09:12:16.957Z,101846.91
2023-07-30T09:17:19.979Z,101842.31
2023-07-30T09:22:28.853Z,101857.50
2023-07-30T09:27:32.442Z,101855.50
2023-07-30T09:32:36.306Z,101850.63
2023-07-30T09:37:41.193Z,101849.81
2023-07-30T09:42:44.983Z,101855.34
2023-07-30T09:47:51.411Z,101857.41
2023-07-30T09:52:55.722Z,101861.09
2023-07-30T09:57:58.417Z,101863.31
2023-07-30T10:03:03.883Z,101872.94
2023-07-30T10:08:40.531Z,101880.69
2023-07-30T10:13:43.356Z,101873.78
2023-07-30T10:18:45.877Z,101871.94
2023-07-30T10:24:01.685Z,101881.38
2023-07-30T10:29:14.769Z,101873.28
2023-07-30T10:34:17.076Z,101876.69
2023-07-30T10:39:27.391Z,101867.56
2023-07-30T10:44:33.526Z,101861.16
2023-07-30T10:49:42.697Z,101864.84
2023-07-30T10:54:44.904Z,101866.25
2023-07-30T10:59:47.919Z,101856.69
2023-07-30T11:04:50.042Z,101856.53
2023-07-30T11:10:04.902Z,101861.94
2023-07-30T11:15:07.753Z,101860.44
2023-07-30T11:20:22.494Z,101860.09
2023-07-30T11:25:24.837Z,101863.97
2023-07-30T11:30:29.901Z,101860.28
2023-07-30T11:35:32.567Z,101873.28
2023-07-30T11:40:34.948Z,101880.72
2023-07-30T11:45:37.261Z,101872.06
2023-07-30T11:50:50.217Z,101865.84
2023-07-30T11:55:52.409Z,101865.31
2023-07-30T12:00:55.236Z,101861.47
2023-07-30T12:05:57.439Z,101848.13
2023-07-30T12:11:07.465Z,101846.44
2023-07-30T12:16:09.907Z,101843.91
2023-07-30T12:21:13.547Z,101850.97
2023-07-30T12:26:15.746Z,101842.38
2023-07-30T12:31:17.901Z,101847.78
2023-07-30T12:36:20.077Z,101851.47
2023-07-30T12:41:27.325Z,101850.47
2023-07-30T12:46:31.391Z,101851.47
2023-07-30T12:51:34.320Z,101852.34
2023-07-30T12:56:37.822Z,101845.25
2023-07-30T13:01:40.802Z,101849.63
2023-07-30T13:06:43.978Z,101848.78
2023-07-30T13:11:46.164Z,101853.34
2023-07-30T13:16:48.438Z,101854.34
2023-07-30T13:21:50.666Z,101853.50
2023-07-30T13:26:52.866Z,101853.50
2023-07-30T13:31:55.088Z,101851.28
2023-07-30T13:36:57.270Z,101851.28
2023-07-30T13:41:59.425Z,101851.13
2023-07-30T13:47:01.612Z,101848.25
2023-07-30T13:52:04.046Z,101859.03
2023-07-30T13:57:06.723Z,101849.59
2023-07-30T14:02:09.010Z,101861.09
2023-07-30T14:07:11.229Z,101857.69
2023-07-30T14:12:13.475Z,101861.09
2023-07-30T14:17:17.029Z,101858.53
2023-07-30T14:22:19.262Z,101855.00
2023-07-30T14:27:21.466Z,101846.91
2023-07-30T14:32:24.604Z,101850.59
2023-07-30T14:37:26.566Z,101845.34
2023-07-30T14:42:28.785Z,101849.09
2023-07-30T14:47:30.921Z,101843.50
2023-07-30T14:52:33.195Z,101841.00
2023-07-30T14:57:35.594Z,101841.66
2023-07-30T15:02:37.867Z,101830.00
2023-07-30T15:07:40.023Z,101830.72
2023-07-30T15:12:42.188Z,101825.16
2023-07-30T15:17:44.365Z,101816.91
2023-07-30T15:22:46.642Z,101819.41
2023-07-30T15:27:48.929Z,101819.41
2023-07-30T15:32:51.278Z,101821.25
2023-07-30T15:37:53.472Z,101817.41
2023-07-30T15:42:55.667Z,101814.56
2023-07-30T15:47:59.322Z,101814.56
2023-07-30T15:53:01.688Z,101811.16
2023-07-30T15:58:03.887Z,101806.31
2023-07-30T16:03:08.247Z,101811.50
2023-07-30T16:08:10.564Z,101805.94
2023-07-30T16:13:12.835Z,101818.44
2023-07-30T16:18:15.005Z,101812.19
2023-07-30T16:23:17.165Z,101810.34
2023-07-30T16:28:19.369Z,101800.41
2023-07-30T16:33:22.087Z,101800.06
2023-07-30T16:38:24.785Z,101790.78
2023-07-30T16:43:27.143Z,101790.44
2023-07-30T16:48:29.573Z,101786.44
2023-07-30T16:53:31.731Z,101782.53
2023-07-30T16:58:33.982Z,101775.44
2023-07-30T17:03:38.905Z,101766.84
2023-07-30T17:08:41.169Z,101768.22
2023-07-30T17:13:45.475Z,101769.72
2023-07-30T17:18:47.816Z,101769.56
2023-07-30T17:23:50.351Z,101775.66
2023-07-30T17:28:52.527Z,101771.09
2023-07-30T17:33:57.647Z,101779.00
2023-07-30T17:39:00.211Z,101776.13
2023-07-30T17:44:03.642Z,101781.38
2023-07-30T17:49:05.953Z,101776.13
2023-07-30T17:54:08.182Z,101787.50
2023-07-30T17:59:10.792Z,101785.66
2023-07-30T18:04:12.953Z,101783.94
2023-07-30T18:09:15.581Z,101787.78
2023-07-30T18:14:17.808Z,101791.34
2023-07-30T18:19:20.351Z,101802.28
2023-07-30T18:24:23.057Z,101796.03
2023-07-30T18:29:25.199Z,101806.50
2023-07-30T18:34:27.372Z,101803.81
2023-07-30T18:39:29.561Z,101801.47
2023-07-30T18:44:31.752Z,101799.94
2023-07-30T18:49:33.929Z,101809.38
2023-07-30T18:54:36.025Z,101803.66
2023-07-30T18:59:39.366Z,101806.50
2023-07-30T19:04:41.581Z,101808.88
2023-07-30T19:09:43.857Z,101807.00
2023-07-30T19:14:46.004Z,101815.44
2023-07-30T19:19:48.820Z,101825.38
2023-07-30T19:24:51.084Z,101818.47
2023-07-30T19:29:53.308Z,101820.63
2023-07-30T19:34:55.584Z,101821.47
2023-07-30T19:39:57.869Z,101826.38
2023-07-30T19:45:00.063Z,101829.59
2023-07-30T19:50:04.097Z,101835.66
2023-07-30T19:55:10.684Z,101834.94
2023-07-30T20:00:13.649Z,101832.44
2023-07-30T20:05:16.620Z,101837.34
2023-07-30T20:10:18.903Z,101848.97
2023-07-30T20:15:20.983Z,101847.38
2023-07-30T20:20:23.507Z,101856.31
2023-07-30T20:25:25.864Z,101861.16
2023-07-30T20:30:28.021Z,101863.72
2023-07-30T20:35:30.396Z,101858.66
2023-07-30T20:40:32.597Z,101862.84
2023-07-30T20:45:34.789Z,101860.31
2023-07-30T20:50:37.376Z,101866.91
2023-07-30T20:55:39.582Z,101855.09
2023-07-30T21:00:41.852Z,101861.16
2023-07-30T21:05:44.125Z,101857.47
2023-07-30T21:10:46.321Z,101856.47
2023-07-30T21:15:51.436Z,101856.63
2023-07-30T21:20:53.739Z,101848.53
2023-07-30T21:25:56.023Z,101853.41
2023-07-30T21:31:06.000Z,101853.25
2023-07-30T21:36:08.304Z,101861.50
2023-07-30T21:41:10.499Z,101866.34
2023-07-30T21:46:12.949Z,101867.53
2023-07-30T21:51:15.163Z,101869.41
2023-07-30T21:56:17.326Z,101879.00
2023-07-30T22:01:19.512Z,101882.88
2023-07-30T22:06:21.707Z,101879.34
2023-07-30T22:11:25.623Z,101882.72
2023-07-30T22:16:29.749Z,101888.28
2023-07-30T22:21:31.922Z,101891.66
2023-07-30T22:26:34.216Z,101890.63
2023-07-30T22:31:39.775Z,101888.97
2023-07-30T22:36:42.405Z,101899.91
2023-07-30T22:41:44.985Z,101905.16
2023-07-30T22:46:47.376Z,101909.84
2023-07-30T22:51:49.589Z,101909.16
2023-07-30T22:56:52.061Z,101903.78
2023-07-30T23:01:57.652Z,101901.91
2023-07-30T23:07:00.080Z,101894.69
2023-07-30T23:12:02.385Z,101888.44
2023-07-30T23:17:04.763Z,101895.16
2023-07-30T23:22:10.464Z,101891.94
2023-07-30T23:27:15.178Z,101884.16
2023-07-30T23:32:17.915Z,101887.88
2023-07-30T23:37:20.100Z,101888.88
2023-07-30T23:42:22.256Z,101889.72
2023-07-30T23:47:26.127Z,101884.31
2023-07-30T23:52:34.799Z,101888.03
2023-07-30T23:57:37.772Z,101881.78
